createdAt,value
2019-03-29T00:01:37.206Z,88450.91
2019-03-29T00:04:03.953Z,88453.04
2019-03-29T00:06:30.702Z,88458.13
2019-03-29T00:08:57.503Z,88462.03
2019-03-29T00:11:24.241Z,88456.16
2019-03-29T00:13:50.993Z,88454.34
2019-03-29T00:16:17.749Z,88451.80
2019-03-29T00:18:44.483Z,88451.47
2019-03-29T00:21:11.301Z,88449.50
2019-03-29T00:23:38.033Z,88449.86
2019-03-29T00:26:04.779Z,88447.61
2019-03-29T00:28:31.569Z,88456.46
2019-03-29T00:30:58.293Z,88450.06
2019-03-29T00:33:25.006Z,88448.55
2019-03-29T00:35:51.996Z,88448.30
2019-03-29T00:38:18.744Z,88450.38
2019-03-29T00:40:45.463Z,88445.70
2019-03-29T00:43:12.239Z,88448.77
2019-03-29T00:45:38.973Z,88445.06
2019-03-29T00:48:05.780Z,88449.02
2019-03-29T00:50:33.050Z,88452.19
2019-03-29T00:52:59.853Z,88448.81
2019-03-29T00:55:26.618Z,88444.14
2019-03-29T00:57:53.333Z,88444.80
2019-03-29T01:00:20.262Z,88447.03
2019-03-29T01:02:47.192Z,88451.55
2019-03-29T01:05:14.044Z,88453.68
2019-03-29T01:07:40.778Z,88443.71
2019-03-29T01:10:08.599Z,88454.70
2019-03-29T01:12:35.342Z,88451.48
2019-03-29T01:15:04.752Z,88452.56
2019-03-29T01:17:31.518Z,88454.38
2019-03-29T01:19:58.230Z,88460.63
2019-03-29T01:22:24.962Z,88452.31
2019-03-29T01:24:51.784Z,88449.06
2019-03-29T01:27:19.197Z,88453.02
2019-03-29T01:29:46.229Z,88453.02
2019-03-29T01:32:12.954Z,88451.11
2019-03-29T01:34:39.698Z,88452.36
2019-03-29T01:37:06.483Z,88449.34
2019-03-29T01:39:33.220Z,88448.09
2019-03-29T01:42:00.019Z,88453.63
2019-03-29T01:44:27.929Z,88454.03
2019-03-29T01:46:54.814Z,88452.05
2019-03-29T01:49:21.615Z,88452.34
2019-03-29T01:51:48.343Z,88446.67
2019-03-29T01:54:15.087Z,88448.55
2019-03-29T01:56:41.920Z,88442.61
2019-03-29T01:59:08.653Z,88449.41
2019-03-29T02:01:35.391Z,88458.23
2019-03-29T02:04:05.516Z,88449.72
2019-03-29T02:06:30.765Z,88453.36
2019-03-29T02:08:57.510Z,88450.58
2019-03-29T02:11:24.323Z,88457.38
2019-03-29T02:13:51.261Z,88453.91
2019-03-29T02:16:18.692Z,88456.34
2019-03-29T02:18:45.495Z,88460.49
2019-03-29T02:21:12.523Z,88459.77
2019-03-29T02:23:39.275Z,88465.81
2019-03-29T02:26:06.084Z,88469.53
2019-03-29T02:28:32.805Z,88471.92
2019-03-29T02:30:59.776Z,88467.71
2019-03-29T02:33:26.940Z,88464.30
2019-03-29T02:35:53.780Z,88475.50
2019-03-29T02:38:20.566Z,88483.71
2019-03-29T02:40:47.299Z,88481.34
2019-03-29T02:43:14.349Z,88477.70
2019-03-29T02:45:41.143Z,88477.53
2019-03-29T02:48:08.380Z,88473.94
2019-03-29T02:50:36.661Z,88472.16
2019-03-29T02:53:03.638Z,88476.01
2019-03-29T02:55:30.357Z,88473.50
2019-03-29T02:57:57.111Z,88484.92
2019-03-29T03:00:23.877Z,88482.37
2019-03-29T03:02:50.621Z,88480.07
2019-03-29T03:05:17.510Z,88478.11
2019-03-29T03:07:44.652Z,88482.19
2019-03-29T03:10:12.568Z,88490.30
2019-03-29T03:12:39.343Z,88480.11
2019-03-29T03:15:08.478Z,88480.15
2019-03-29T03:17:35.918Z,88481.78
2019-03-29T03:20:07.853Z,88482.08
2019-03-29T03:22:34.600Z,88492.20
2019-03-29T03:25:01.396Z,88481.34
2019-03-29T03:27:28.140Z,88485.57
2019-03-29T03:29:57.867Z,88483.27
2019-03-29T03:32:24.652Z,88482.69
2019-03-29T03:34:51.509Z,88490.20
2019-03-29T03:37:18.372Z,88490.42
2019-03-29T03:39:45.118Z,88494.88
2019-03-29T03:42:12.734Z,88493.20
2019-03-29T03:44:39.522Z,88485.95
2019-03-29T03:47:06.260Z,88482.58
2019-03-29T03:49:33.002Z,88480.84
2019-03-29T03:51:59.992Z,88477.47
2019-03-29T03:54:26.828Z,88479.09
2019-03-29T03:56:54.168Z,88473.91
2019-03-29T03:59:23.886Z,88468.53
2019-03-29T04:01:50.620Z,88477.95
2019-03-29T04:04:17.408Z,88471.72
2019-03-29T04:06:44.165Z,88477.95
2019-03-29T04:09:10.908Z,88482.42
2019-03-29T04:11:37.783Z,88480.39
2019-03-29T04:14:04.594Z,88481.27
2019-03-29T04:16:31.361Z,88485.87
2019-03-29T04:18:58.251Z,88482.24
2019-03-29T04:21:25.002Z,88482.05
2019-03-29T04:23:51.769Z,88482.34
2019-03-29T04:26:18.658Z,88485.45
2019-03-29T04:28:56.999Z,88487.60
2019-03-29T04:31:14.025Z,88486.50
2019-03-29T04:33:40.813Z,88485.78
2019-03-29T04:36:07.553Z,88483.78
2019-03-29T04:38:34.279Z,88489.48
2019-03-29T04:41:02.153Z,88488.67
2019-03-29T04:43:28.877Z,88491.34
2019-03-29T04:45:56.908Z,88493.92
2019-03-29T04:48:23.646Z,88490.34
2019-03-29T04:50:50.381Z,88492.77
2019-03-29T04:53:19.734Z,88491.80
2019-03-29T04:55:46.406Z,88498.02
2019-03-29T04:58:13.243Z,88499.34
2019-03-29T05:00:40.033Z,88510.20
2019-03-29T05:03:06.768Z,88512.56
2019-03-29T05:05:33.559Z,88508.38
2019-03-29T05:08:00.358Z,88507.89
2019-03-29T05:10:27.100Z,88502.22
2019-03-29T05:12:53.830Z,88501.42
2019-03-29T05:15:20.595Z,88498.53
2019-03-29T05:17:47.341Z,88502.97
2019-03-29T05:20:14.077Z,88511.00
2019-03-29T05:22:40.869Z,88514.63
2019-03-29T05:25:27.366Z,88509.94
2019-03-29T05:27:54.186Z,88509.97
2019-03-29T05:30:20.903Z,88508.25
2019-03-29T05:32:47.647Z,88502.84
2019-03-29T05:35:14.440Z,88502.78
2019-03-29T05:37:41.178Z,88505.82
2019-03-29T05:40:08.736Z,88502.75
2019-03-29T05:42:35.477Z,88507.44
2019-03-29T05:45:05.432Z,88498.70
2019-03-29T05:47:32.215Z,88502.36
2019-03-29T05:49:58.959Z,88503.23
2019-03-29T05:52:25.739Z,88515.12
2019-03-29T05:54:52.471Z,88512.10
2019-03-29T05:57:19.201Z,88517.28
2019-03-29T05:59:46.096Z,88523.15
2019-03-29T06:02:12.832Z,88532.80
2019-03-29T06:04:39.575Z,88517.28
2019-03-29T06:07:06.382Z,88516.22
2019-03-29T06:09:34.968Z,88509.97
2019-03-29T06:12:01.711Z,88515.67
2019-03-29T06:14:28.469Z,88505.63
2019-03-29T06:16:55.240Z,88516.93
2019-03-29T06:19:22.010Z,88510.94
2019-03-29T06:21:48.737Z,88508.66
2019-03-29T06:24:15.488Z,88515.50
2019-03-29T06:26:42.265Z,88513.91
2019-03-29T06:29:09.013Z,88516.95
2019-03-29T06:31:35.820Z,88522.22
2019-03-29T06:34:02.584Z,88523.07
2019-03-29T06:36:30.724Z,88523.14
2019-03-29T06:38:59.320Z,88519.03
2019-03-29T06:41:26.069Z,88515.69
2019-03-29T06:43:52.786Z,88516.30
2019-03-29T06:46:19.615Z,88511.69
2019-03-29T06:48:46.361Z,88509.61
2019-03-29T06:51:13.116Z,88511.95
2019-03-29T06:53:39.934Z,88507.79
2019-03-29T06:56:06.733Z,88505.78
2019-03-29T06:58:33.424Z,88512.58
2019-03-29T07:01:00.298Z,88518.62
2019-03-29T07:03:27.042Z,88516.61
2019-03-29T07:05:53.882Z,88517.35
2019-03-29T07:08:20.696Z,88506.97
2019-03-29T07:10:47.478Z,88498.03
2019-03-29T07:13:14.278Z,88494.80
2019-03-29T07:15:41.021Z,88487.36
2019-03-29T07:18:07.752Z,88479.55
2019-03-29T07:20:34.550Z,88478.83
2019-03-29T07:23:01.301Z,88472.67
2019-03-29T07:25:28.092Z,88472.25
2019-03-29T07:27:54.839Z,88465.92
2019-03-29T07:30:21.572Z,88467.66
2019-03-29T07:32:48.373Z,88468.02
2019-03-29T07:35:15.105Z,88466.37
2019-03-29T07:37:41.918Z,88460.06
2019-03-29T07:40:09.149Z,88449.08
2019-03-29T07:42:35.907Z,88452.94
2019-03-29T07:45:05.445Z,88451.58
2019-03-29T07:47:32.199Z,88448.46
2019-03-29T07:49:58.947Z,88452.69
2019-03-29T07:52:25.734Z,88456.86
2019-03-29T07:54:52.486Z,88455.10
2019-03-29T07:57:19.278Z,88455.17
2019-03-29T07:59:46.030Z,88447.81
2019-03-29T08:02:12.764Z,88441.14
2019-03-29T08:04:39.586Z,88438.63
2019-03-29T08:07:06.643Z,88440.07
2019-03-29T08:09:33.529Z,88431.94
2019-03-29T08:12:00.315Z,88435.61
2019-03-29T08:14:27.062Z,88435.06
2019-03-29T08:16:53.888Z,88434.89
2019-03-29T08:19:20.626Z,88439.48
2019-03-29T08:21:47.367Z,88433.95
2019-03-29T08:24:14.161Z,88432.30
2019-03-29T08:26:41.025Z,88434.50
2019-03-29T08:29:07.824Z,88441.24
2019-03-29T08:31:34.576Z,88431.36
2019-03-29T08:34:01.511Z,88431.45
2019-03-29T08:36:28.322Z,88427.80
2019-03-29T08:38:55.116Z,88429.63
2019-03-29T08:41:21.925Z,88429.78
2019-03-29T08:43:48.686Z,88433.15
2019-03-29T08:46:15.420Z,88436.78
2019-03-29T08:48:42.260Z,88437.67
2019-03-29T08:51:09.021Z,88431.72
2019-03-29T08:53:35.787Z,88428.63
2019-03-29T08:56:02.648Z,88423.37
2019-03-29T08:58:29.401Z,88423.31
2019-03-29T09:00:56.129Z,88422.98
2019-03-29T09:03:23.937Z,88415.30
2019-03-29T09:05:50.872Z,88410.52
2019-03-29T09:08:17.627Z,88407.31
2019-03-29T09:10:44.452Z,88410.95
2019-03-29T09:13:11.199Z,88408.83
2019-03-29T09:15:38.017Z,88407.34
2019-03-29T09:18:04.772Z,88410.86
2019-03-29T09:20:34.294Z,88408.67
2019-03-29T09:23:00.136Z,88406.98
2019-03-29T09:25:26.893Z,88412.22
2019-03-29T09:27:53.706Z,88409.08
2019-03-29T09:30:20.544Z,88412.17
2019-03-29T09:32:50.905Z,88411.10
2019-03-29T09:35:15.897Z,88401.92
2019-03-29T09:37:42.640Z,88402.59
2019-03-29T09:40:09.583Z,88396.84
2019-03-29T09:42:36.491Z,88398.92
2019-03-29T09:45:06.246Z,88402.85
2019-03-29T09:47:38.564Z,88392.68
2019-03-29T09:50:03.272Z,88396.73
2019-03-29T09:52:30.018Z,88398.50
2019-03-29T09:54:56.823Z,88393.89
2019-03-29T09:57:36.997Z,88393.11
2019-03-29T09:59:52.155Z,88392.67
2019-03-29T10:02:18.984Z,88381.17
2019-03-29T10:04:45.714Z,88379.77
2019-03-29T10:07:12.491Z,88381.73
2019-03-29T10:09:39.362Z,88376.44
2019-03-29T10:12:06.157Z,88370.39
2019-03-29T10:14:33.824Z,88370.56
2019-03-29T10:17:00.625Z,88359.16
2019-03-29T10:19:27.377Z,88360.33
2019-03-29T10:21:54.131Z,88358.86
2019-03-29T10:24:20.926Z,88360.52
2019-03-29T10:26:47.669Z,88361.36
2019-03-29T10:29:14.480Z,88353.43
2019-03-29T10:31:41.301Z,88359.48
2019-03-29T10:34:08.042Z,88352.92
2019-03-29T10:36:34.808Z,88354.41
2019-03-29T10:39:01.673Z,88351.50
2019-03-29T10:41:28.449Z,88346.34
2019-03-29T10:43:55.248Z,88338.76
2019-03-29T10:46:21.987Z,88335.47
2019-03-29T10:48:48.725Z,88336.78
2019-03-29T10:51:15.554Z,88330.90
2019-03-29T10:53:42.313Z,88321.05
2019-03-29T10:56:09.067Z,88313.45
2019-03-29T10:58:35.867Z,88310.69
2019-03-29T11:01:03.124Z,88303.10
2019-03-29T11:03:29.929Z,88300.13
2019-03-29T11:05:56.738Z,88301.10
2019-03-29T11:08:23.494Z,88311.94
2019-03-29T11:10:50.246Z,88303.07
2019-03-29T11:13:17.091Z,88311.36
2019-03-29T11:15:43.852Z,88304.30
2019-03-29T11:18:11.245Z,88311.09
2019-03-29T11:20:38.052Z,88312.25
2019-03-29T11:23:04.826Z,88305.78
2019-03-29T11:25:31.645Z,88307.59
2019-03-29T11:27:58.368Z,88309.93
2019-03-29T11:30:25.136Z,88299.98
2019-03-29T11:32:51.941Z,88305.85
2019-03-29T11:35:18.684Z,88308.32
2019-03-29T11:37:45.448Z,88304.23
2019-03-29T11:40:12.687Z,88297.78
2019-03-29T11:42:39.444Z,88295.50
2019-03-29T11:45:08.263Z,88292.83
2019-03-29T11:47:35.081Z,88296.59
2019-03-29T11:50:02.620Z,88294.37
2019-03-29T11:52:29.379Z,88282.96
2019-03-29T11:54:56.278Z,88282.60
2019-03-29T11:57:23.049Z,88281.61
2019-03-29T11:59:49.888Z,88272.64
2019-03-29T12:02:30.184Z,88283.54
2019-03-29T12:04:45.269Z,88280.55
2019-03-29T12:07:12.304Z,88272.28
2019-03-29T12:09:39.054Z,88267.17
2019-03-29T12:12:05.802Z,88268.13
2019-03-29T12:14:32.672Z,88266.57
2019-03-29T12:17:00.123Z,88262.94
2019-03-29T12:19:26.880Z,88267.46
2019-03-29T12:21:53.673Z,88258.48
2019-03-29T12:24:20.501Z,88255.73
2019-03-29T12:26:47.324Z,88248.84
2019-03-29T12:29:14.049Z,88255.30
2019-03-29T12:31:40.806Z,88252.32
2019-03-29T12:34:07.648Z,88245.00
2019-03-29T12:36:34.517Z,88246.02
2019-03-29T12:39:05.754Z,88247.02
2019-03-29T12:41:32.548Z,88240.36
2019-03-29T12:43:59.286Z,88241.76
2019-03-29T12:46:26.034Z,88244.95
2019-03-29T12:48:52.812Z,88244.52
2019-03-29T12:51:19.578Z,88241.44
2019-03-29T12:53:46.381Z,88234.97
2019-03-29T12:56:13.128Z,88233.55
2019-03-29T12:58:39.876Z,88234.62
2019-03-29T13:01:06.701Z,88229.08
2019-03-29T13:03:33.443Z,88231.63
2019-03-29T13:06:00.230Z,88222.30
2019-03-29T13:08:27.012Z,88224.29
2019-03-29T13:10:54.090Z,88223.94
2019-03-29T13:13:20.913Z,88225.27
2019-03-29T13:15:47.712Z,88226.48
2019-03-29T13:18:14.655Z,88231.98
2019-03-29T13:20:41.457Z,88223.45
2019-03-29T13:23:08.191Z,88224.64
2019-03-29T13:25:35.003Z,88220.10
2019-03-29T13:28:01.777Z,88212.12
2019-03-29T13:30:28.537Z,88210.46
2019-03-29T13:32:55.336Z,88213.55
2019-03-29T13:35:22.107Z,88205.08
2019-03-29T13:37:48.879Z,88202.18
2019-03-29T13:40:15.770Z,88203.33
2019-03-29T13:42:42.536Z,88201.99
2019-03-29T13:45:09.328Z,88196.45
2019-03-29T13:47:36.601Z,88188.08
2019-03-29T13:50:07.515Z,88193.63
2019-03-29T13:52:34.264Z,88183.34
2019-03-29T13:55:01.054Z,88186.13
2019-03-29T13:57:27.845Z,88184.13
2019-03-29T13:59:54.782Z,88180.97
2019-03-29T14:02:21.545Z,88183.27
2019-03-29T14:04:48.297Z,88186.14
2019-03-29T14:07:15.029Z,88179.11
2019-03-29T14:09:41.889Z,88176.94
2019-03-29T14:12:08.643Z,88176.23
2019-03-29T14:14:38.468Z,88173.95
2019-03-29T14:17:03.999Z,88180.63
2019-03-29T14:19:30.772Z,88173.09
2019-03-29T14:21:57.635Z,88176.17
2019-03-29T14:24:24.411Z,88172.50
2019-03-29T14:26:51.132Z,88165.60
2019-03-29T14:29:17.945Z,88165.58
2019-03-29T14:31:44.710Z,88161.44
2019-03-29T14:34:11.433Z,88160.93
2019-03-29T14:36:38.238Z,88158.50
2019-03-29T14:39:05.890Z,88151.69
2019-03-29T14:41:34.618Z,88154.42
2019-03-29T14:44:01.423Z,88156.03
2019-03-29T14:46:28.194Z,88153.20
2019-03-29T14:48:55.104Z,88148.02
2019-03-29T14:51:21.918Z,88150.60
2019-03-29T14:53:48.663Z,88149.08
2019-03-29T14:56:15.475Z,88148.27
2019-03-29T14:58:42.220Z,88149.44
2019-03-29T15:01:09.125Z,88141.02
2019-03-29T15:03:35.898Z,88143.47
2019-03-29T15:06:02.872Z,88142.35
2019-03-29T15:08:29.970Z,88144.48
2019-03-29T15:11:00.048Z,88146.50
2019-03-29T15:13:26.799Z,88143.79
2019-03-29T15:15:53.867Z,88143.79
2019-03-29T15:18:21.025Z,88140.61
2019-03-29T15:20:53.574Z,88141.27
2019-03-29T15:23:16.592Z,88142.92
2019-03-29T15:25:43.369Z,88150.89
2019-03-29T15:28:10.153Z,88148.27
2019-03-29T15:30:37.061Z,88145.23
2019-03-29T15:33:03.842Z,88145.12
2019-03-29T15:35:30.627Z,88142.66
2019-03-29T15:37:57.485Z,88142.78
2019-03-29T15:40:24.332Z,88132.56
2019-03-29T15:42:51.081Z,88134.35
2019-03-29T15:45:20.712Z,88133.59
2019-03-29T15:47:46.683Z,88133.61
2019-03-29T15:50:13.583Z,88131.84
2019-03-29T15:52:40.446Z,88134.50
2019-03-29T15:55:07.657Z,88137.51
2019-03-29T15:57:34.546Z,88144.77
2019-03-29T16:00:01.343Z,88137.89
2019-03-29T16:02:28.079Z,88145.02
2019-03-29T16:04:55.094Z,88146.12
2019-03-29T16:07:21.986Z,88148.94
2019-03-29T16:09:48.718Z,88147.41
2019-03-29T16:12:15.528Z,88151.83
2019-03-29T16:14:42.293Z,88155.98
2019-03-29T16:17:09.210Z,88159.13
2019-03-29T16:19:36.472Z,88164.55
2019-03-29T16:22:05.908Z,88162.02
2019-03-29T16:24:31.881Z,88164.75
2019-03-29T16:26:58.704Z,88163.53
2019-03-29T16:29:25.493Z,88160.61
2019-03-29T16:31:53.633Z,88165.56
2019-03-29T16:34:20.320Z,88169.02
2019-03-29T16:36:47.178Z,88169.05
2019-03-29T16:39:14.025Z,88172.07
2019-03-29T16:41:40.803Z,88175.97
2019-03-29T16:44:07.657Z,88180.59
2019-03-29T16:46:37.609Z,88178.27
2019-03-29T16:49:04.348Z,88185.95
2019-03-29T16:51:31.667Z,88185.54
2019-03-29T16:53:58.444Z,88194.42
2019-03-29T16:56:25.293Z,88187.68
2019-03-29T16:58:52.082Z,88190.61
2019-03-29T17:01:18.861Z,88191.57
2019-03-29T17:03:45.710Z,88196.66
2019-03-29T17:06:12.512Z,88205.41
2019-03-29T17:08:39.364Z,88201.52
2019-03-29T17:11:06.201Z,88205.39
2019-03-29T17:13:32.985Z,88200.83
2019-03-29T17:16:02.158Z,88204.60
2019-03-29T17:18:29.414Z,88203.84
2019-03-29T17:20:56.695Z,88206.66
2019-03-29T17:23:23.504Z,88215.10
2019-03-29T17:25:50.248Z,88211.70
2019-03-29T17:28:16.991Z,88215.55
2019-03-29T17:30:43.771Z,88208.90
2019-03-29T17:33:10.512Z,88215.11
2019-03-29T17:35:37.370Z,88225.84
2019-03-29T17:38:04.590Z,88220.55
2019-03-29T17:40:31.383Z,88220.42
2019-03-29T17:42:58.311Z,88225.44
2019-03-29T17:45:25.101Z,88225.98
2019-03-29T17:47:51.854Z,88232.10
2019-03-29T17:50:18.667Z,88228.30
2019-03-29T17:52:45.463Z,88233.55
2019-03-29T17:55:12.396Z,88235.91
2019-03-29T17:57:39.128Z,88234.13
2019-03-29T18:00:07.577Z,88236.84
2019-03-29T18:02:34.439Z,88237.67
2019-03-29T18:05:01.181Z,88239.16
2019-03-29T18:07:27.964Z,88247.05
2019-03-29T18:09:54.806Z,88251.14
2019-03-29T18:12:21.538Z,88247.86
2019-03-29T18:14:48.327Z,88242.53
2019-03-29T18:17:15.092Z,88252.73
2019-03-29T18:19:41.924Z,88252.42
2019-03-29T18:22:08.738Z,88255.05
2019-03-29T18:24:35.497Z,88250.59
2019-03-29T18:27:02.293Z,88250.09
2019-03-29T18:29:29.096Z,88255.27
2019-03-29T18:31:55.967Z,88259.31
2019-03-29T18:34:23.996Z,88262.73
2019-03-29T18:36:52.685Z,88265.48
2019-03-29T18:39:20.865Z,88264.05
2019-03-29T18:41:47.664Z,88271.48
2019-03-29T18:44:14.414Z,88278.92
2019-03-29T18:46:44.767Z,88281.99
2019-03-29T18:49:09.798Z,88283.52
2019-03-29T18:51:36.541Z,88285.59
2019-03-29T18:54:03.626Z,88288.33
2019-03-29T18:56:30.470Z,88291.48
2019-03-29T18:58:57.200Z,88293.34
2019-03-29T19:01:25.855Z,88298.80
2019-03-29T19:03:52.843Z,88302.71
2019-03-29T19:06:19.627Z,88308.48
2019-03-29T19:08:49.985Z,88310.88
2019-03-29T19:11:16.732Z,88309.90
2019-03-29T19:13:43.542Z,88314.70
2019-03-29T19:16:10.325Z,88316.11
2019-03-29T19:18:37.049Z,88317.17
2019-03-29T19:21:03.991Z,88320.62
2019-03-29T19:23:30.731Z,88319.66
2019-03-29T19:25:57.506Z,88323.13
2019-03-29T19:28:24.294Z,88324.97
2019-03-29T19:30:51.069Z,88324.83
2019-03-29T19:33:17.796Z,88324.63
2019-03-29T19:35:44.610Z,88324.37
2019-03-29T19:38:11.378Z,88312.99
2019-03-29T19:40:38.260Z,88316.92
2019-03-29T19:43:05.117Z,88316.58
2019-03-29T19:45:34.287Z,88315.25
2019-03-29T19:48:00.428Z,88314.11
2019-03-29T19:50:27.215Z,88311.35
2019-03-29T19:52:53.939Z,88316.23
2019-03-29T19:55:20.761Z,88315.67
2019-03-29T19:57:47.516Z,88309.63
2019-03-29T20:00:14.882Z,88316.84
2019-03-29T20:02:45.513Z,88316.63
2019-03-29T20:05:24.884Z,88322.34
2019-03-29T20:07:52.915Z,88318.37
2019-03-29T20:10:19.702Z,88316.70
2019-03-29T20:12:46.588Z,88321.70
2019-03-29T20:15:13.399Z,88320.04
2019-03-29T20:17:40.189Z,88313.98
2019-03-29T20:20:07.047Z,88324.08
2019-03-29T20:22:33.888Z,88318.31
2019-03-29T20:25:00.665Z,88319.95
2019-03-29T20:27:27.480Z,88320.45
2019-03-29T20:29:54.250Z,88325.25
2019-03-29T20:32:21.000Z,88330.80
2019-03-29T20:34:47.808Z,88327.74
2019-03-29T20:37:14.572Z,88330.97
2019-03-29T20:39:41.386Z,88327.55
2019-03-29T20:42:08.155Z,88335.97
2019-03-29T20:44:34.936Z,88341.77
2019-03-29T20:47:01.778Z,88343.92
2019-03-29T20:49:28.543Z,88346.62
2019-03-29T20:51:55.270Z,88353.19
2019-03-29T20:54:22.111Z,88343.75
2019-03-29T20:56:48.896Z,88349.45
2019-03-29T20:59:15.640Z,88352.76
2019-03-29T21:01:42.414Z,88351.16
2019-03-29T21:04:09.197Z,88358.62
2019-03-29T21:06:36.021Z,88357.77
2019-03-29T21:09:06.000Z,88355.64
2019-03-29T21:11:32.721Z,88350.66
2019-03-29T21:13:59.536Z,88351.58
2019-03-29T21:16:26.307Z,88347.30
2019-03-29T21:18:53.149Z,88346.06
2019-03-29T21:21:19.929Z,88350.44
2019-03-29T21:23:47.360Z,88341.94
2019-03-29T21:26:14.272Z,88344.17
2019-03-29T21:28:41.051Z,88345.70
2019-03-29T21:31:07.828Z,88344.34
2019-03-29T21:33:34.676Z,88334.81
2019-03-29T21:36:01.417Z,88339.13
2019-03-29T21:38:28.192Z,88341.17
2019-03-29T21:40:54.999Z,88340.19
2019-03-29T21:43:21.739Z,88340.34
2019-03-29T21:45:48.590Z,88343.27
2019-03-29T21:48:28.762Z,88342.35
2019-03-29T21:50:43.932Z,88342.26
2019-03-29T21:53:10.775Z,88340.58
2019-03-29T21:55:37.549Z,88342.34
2019-03-29T21:58:04.335Z,88339.06
2019-03-29T22:00:31.152Z,88341.04
2019-03-29T22:02:57.933Z,88351.61
2019-03-29T22:05:24.717Z,88349.64
2019-03-29T22:07:51.473Z,88351.62
2019-03-29T22:10:18.234Z,88350.70
2019-03-29T22:12:45.062Z,88347.39
2019-03-29T22:15:13.323Z,88351.62
2019-03-29T22:17:40.112Z,88347.32
2019-03-29T22:20:08.229Z,88340.88
2019-03-29T22:22:35.020Z,88342.49
2019-03-29T22:25:03.102Z,88340.63
2019-03-29T22:27:29.905Z,88339.64
2019-03-29T22:29:56.686Z,88334.11
2019-03-29T22:32:23.504Z,88337.73
2019-03-29T22:34:50.279Z,88332.53
2019-03-29T22:37:17.126Z,88334.22
2019-03-29T22:39:43.936Z,88334.29
2019-03-29T22:42:10.743Z,88326.23
2019-03-29T22:44:37.592Z,88333.83
2019-03-29T22:47:04.387Z,88335.48
2019-03-29T22:49:31.186Z,88325.91
2019-03-29T22:51:58.116Z,88327.06
2019-03-29T22:54:24.920Z,88331.50
2019-03-29T22:56:51.696Z,88320.23
2019-03-29T22:59:18.542Z,88321.08
2019-03-29T23:01:46.242Z,88319.31
2019-03-29T23:04:13.096Z,88318.86
2019-03-29T23:06:39.885Z,88318.41
2019-03-29T23:09:07.089Z,88317.45
2019-03-29T23:11:34.248Z,88315.09
2019-03-29T23:14:01.046Z,88314.84
2019-03-29T23:16:30.393Z,88311.64
2019-03-29T23:19:06.507Z,88308.83
2019-03-29T23:21:25.053Z,88308.05
2019-03-29T23:23:52.693Z,88310.27
2019-03-29T23:26:19.563Z,88313.92
2019-03-29T23:28:46.376Z,88311.95
2019-03-29T23:31:13.146Z,88307.72
2019-03-29T23:33:40.022Z,88308.08
2019-03-29T23:36:06.813Z,88308.39
2019-03-29T23:38:33.607Z,88308.52
2019-03-29T23:41:00.442Z,88305.52
2019-03-29T23:43:27.232Z,88311.11
2019-03-29T23:45:54.076Z,88300.83
2019-03-29T23:48:20.861Z,88297.55
2019-03-29T23:50:47.648Z,88289.19
2019-03-29T23:53:14.484Z,88290.48
2019-03-29T23:55:41.280Z,88287.73
2019-03-29T23:58:08.082Z,88293.01
